Time;durP1;ratioP1;P1;durP2;ratioP2;P2;SDS_P1;SDS_P2;PMS_P1;PMS_P2;Temp;Humidity;BMP_temperature;BMP_pressure;BME280_temperature;BME280_humidity;BME280_pressure;Samples;Min_cycle;Max_cycle;Signal;HPM_P1;HPM_P2
2023/09/15 00:00:38;;;;;;;6.50;4.77;;;;;13.30;101401.00;;;;10153359;29;20226;-77
2023/09/15 00:05:39;;;;;;;6.93;6.13;;;;;13.30;101405.00;;;;10168810;29;20227;-78
2023/09/15 00:10:41;;;;;;;6.53;5.50;;;;;13.30;101392.00;;;;11581207;23;20228;-81
2023/09/15 00:51:10;;;;;;;9.47;4.60;;;;;12.50;101381.00;;;;11932916;23;20320;-78
2023/09/15 01:01:57;;;;;;;6.83;4.90;;;;;12.30;101378.00;;;;11509993;23;20238;-89
2023/09/15 01:07:02;;;;;;;9.13;5.03;;;;;12.20;101377.00;;;;10073739;29;20232;-88
2023/09/15 01:12:05;;;;;;;6.17;5.20;;;;;12.20;101373.00;;;;10059269;29;20273;-88
2023/09/15 01:17:16;;;;;;;8.10;4.97;;;;;12.10;101361.00;;;;10043672;29;20329;-88
2023/09/15 01:22:50;;;;;;;5.93;5.33;;;;;12.10;101362.00;;;;10058977;29;20230;-89
2023/09/15 01:27:58;;;;;;;7.97;5.30;;;;;12.00;101356.00;;;;10081382;29;20297;-89
2023/09/15 01:33:01;;;;;;;8.47;5.77;;;;;11.90;101360.00;;;;10061445;29;20209;-89
2023/09/15 01:38:02;;;;;;;6.73;6.13;;;;;11.90;101365.00;;;;10063394;29;20700;-88
2023/09/15 01:43:04;;;;;;;6.50;5.87;;;;;11.90;101349.00;;;;10046173;29;20196;-88
2023/09/15 01:48:07;;;;;;;7.73;5.67;;;;;11.80;101346.00;;;;10048592;29;20239;-89
2023/09/15 01:53:08;;;;;;;7.00;6.30;;;;;11.80;101352.00;;;;10059861;29;20218;-90
2023/09/15 01:58:12;;;;;;;7.33;6.30;;;;;11.70;101344.00;;;;10062504;29;20245;-87
2023/09/15 02:03:16;;;;;;;9.33;6.67;;;;;11.60;101335.00;;;;10036665;29;20228;-89
2023/09/15 02:08:18;;;;;;;13.30;6.73;;;;;11.50;101336.00;;;;10013628;29;20548;-88
2023/09/15 02:13:19;;;;;;;9.27;6.30;;;;;11.50;101344.00;;;;10013077;29;20201;-87
2023/09/15 02:18:22;;;;;;;11.07;6.10;;;;;11.40;101342.00;;;;9995733;29;20276;-88
2023/09/15 02:23:24;;;;;;;9.43;7.83;;;;;11.40;101334.00;;;;10021336;29;20209;-88
2023/09/15 02:28:26;;;;;;;9.70;6.57;;;;;11.30;101337.00;;;;9985911;29;20256;-87
2023/09/15 02:33:27;;;;;;;8.50;7.10;;;;;11.30;101338.00;;;;10016642;29;20213;-88
2023/09/15 02:38:28;;;;;;;8.03;6.53;;;;;11.20;101329.00;;;;9993921;29;20432;-87
2023/09/15 02:43:31;;;;;;;7.67;6.20;;;;;11.20;101322.00;;;;10014570;29;20220;-87
2023/09/15 02:48:33;;;;;;;8.87;7.13;;;;;11.10;101319.00;;;;10012576;29;20255;-88
2023/09/15 02:53:35;;;;;;;11.00;7.00;;;;;11.10;101319.00;;;;10033879;29;20236;-88
2023/09/15 02:58:36;;;;;;;11.90;7.93;;;;;11.10;101310.00;;;;9999942;29;20217;-88
2023/09/15 03:03:43;;;;;;;10.90;7.47;;;;;11.00;101309.00;;;;10013129;29;20220;-88
2023/09/15 03:08:45;;;;;;;11.17;7.80;;;;;11.00;101313.00;;;;10023935;29;20235;-88
2023/09/15 03:13:48;;;;;;;11.10;7.40;;;;;11.00;101308.00;;;;10015509;29;20215;-88
2023/09/15 03:18:50;;;;;;;10.63;7.27;;;;;10.90;101314.00;;;;10012626;29;20257;-87
2023/09/15 03:23:53;;;;;;;9.70;8.30;;;;;10.90;101309.00;;;;10008777;29;20201;-89
2023/09/15 03:28:55;;;;;;;12.53;8.63;;;;;10.90;101306.00;;;;10043747;29;20217;-90
2023/09/15 03:33:57;;;;;;;11.60;8.57;;;;;10.90;101307.00;;;;10015055;24;20253;-77
2023/09/15 03:38:58;;;;;;;12.60;9.03;;;;;10.80;101306.00;;;;9990903;29;20305;-80
2023/09/15 03:44:00;;;;;;;15.33;9.80;;;;;10.80;101308.00;;;;9986306;29;20205;-79
2023/09/15 03:49:03;;;;;;;12.60;10.07;;;;;10.80;101294.00;;;;10006811;29;20320;-80
2023/09/15 03:54:05;;;;;;;16.53;11.40;;;;;10.70;101282.00;;;;10003248;29;20210;-79
2023/09/15 03:59:07;;;;;;;13.57;10.03;;;;;10.70;101284.00;;;;10001770;29;20237;-80
2023/09/15 04:04:09;;;;;;;13.50;10.90;;;;;10.60;101286.00;;;;9984998;29;20214;-81
2023/09/15 04:09:12;;;;;;;16.73;11.37;;;;;10.60;101281.00;;;;9995010;29;20233;-80
2023/09/15 04:14:13;;;;;;;13.27;10.30;;;;;10.60;101278.00;;;;10031914;29;20220;-81
2023/09/15 04:19:15;;;;;;;12.20;10.53;;;;;10.60;101276.00;;;;9994081;29;20283;-80
2023/09/15 04:24:16;;;;;;;20.37;11.90;;;;;10.60;101267.00;;;;9999435;29;20221;-80
2023/09/15 04:29:19;;;;;;;14.13;11.60;;;;;10.60;101274.00;;;;10005433;29;20260;-81
2023/09/15 04:34:21;;;;;;;17.30;11.90;;;;;10.60;101275.00;;;;10001529;29;20573;-80
2023/09/15 04:39:23;;;;;;;18.87;11.63;;;;;10.60;101282.00;;;;10006276;29;20288;-81
2023/09/15 04:44:24;;;;;;;19.03;13.07;;;;;10.50;101282.00;;;;10004177;29;20292;-81
2023/09/15 04:49:26;;;;;;;15.90;12.07;;;;;10.50;101283.00;;;;9992403;29;20308;-76
2023/09/15 04:54:28;;;;;;;16.50;12.20;;;;;10.50;101286.00;;;;10025576;29;20503;-76
2023/09/15 04:59:31;;;;;;;14.37;11.47;;;;;10.40;101286.00;;;;9990387;29;20218;-78
2023/09/15 05:04:33;;;;;;;18.47;13.97;;;;;10.40;101286.00;;;;10004656;29;20212;-76
2023/09/15 05:09:35;;;;;;;15.90;13.13;;;;;10.40;101287.00;;;;10007551;29;20229;-77
2023/09/15 05:14:36;;;;;;;15.27;12.97;;;;;10.40;101287.00;;;;9997805;29;20216;-78
2023/09/15 05:19:38;;;;;;;18.20;13.60;;;;;10.40;101284.00;;;;10007902;29;20572;-77
2023/09/15 05:24:40;;;;;;;17.23;12.13;;;;;10.40;101287.00;;;;9987441;29;20213;-76
2023/09/15 05:29:43;;;;;;;15.97;12.23;;;;;10.40;101281.00;;;;9991691;29;20239;-78
2023/09/15 05:34:44;;;;;;;19.70;13.70;;;;;10.50;101288.00;;;;10010817;29;20917;-78
2023/09/15 05:39:46;;;;;;;19.00;14.77;;;;;10.50;101294.00;;;;9979258;29;20225;-78
2023/09/15 05:44:48;;;;;;;21.90;15.87;;;;;10.70;101285.00;;;;9960599;29;20213;-76
2023/09/15 05:49:50;;;;;;;20.63;15.63;;;;;10.90;101280.00;;;;9994395;29;20240;-75
2023/09/15 05:54:51;;;;;;;20.83;14.80;;;;;11.00;101288.00;;;;10002808;29;20897;-79
2023/09/15 05:59:53;;;;;;;20.60;14.17;;;;;11.00;101286.00;;;;9992944;29;20596;-80
2023/09/15 06:04:54;;;;;;;23.37;15.57;;;;;11.20;101281.00;;;;9977154;29;20249;-81
2023/09/15 06:09:56;;;;;;;29.57;15.20;;;;;11.30;101282.00;;;;10003816;29;20575;-81
2023/09/15 06:14:58;;;;;;;25.73;15.80;;;;;11.40;101272.00;;;;9983298;29;20224;-80
2023/09/15 06:20:00;;;;;;;21.27;16.33;;;;;11.50;101269.00;;;;9997333;29;20214;-80
2023/09/15 06:25:02;;;;;;;20.87;14.67;;;;;11.80;101265.00;;;;9970114;29;20209;-80
2023/09/15 06:30:04;;;;;;;24.57;16.87;;;;;12.20;101269.00;;;;10022068;29;20233;-80
2023/09/15 06:35:06;;;;;;;22.47;16.50;;;;;12.80;101264.00;;;;9972566;29;20564;-81
2023/09/15 06:40:08;;;;;;;25.10;16.60;;;;;13.10;101260.00;;;;9991632;29;20244;-80
2023/09/15 06:45:11;;;;;;;23.27;15.23;;;;;13.50;101254.00;;;;10012610;29;20542;-80
2023/09/15 06:50:12;;;;;;;18.23;14.30;;;;;13.90;101258.00;;;;9992357;29;20280;-81
2023/09/15 06:55:14;;;;;;;17.03;13.63;;;;;14.20;101257.00;;;;10003393;29;20991;-81
2023/09/15 07:00:15;;;;;;;16.37;13.67;;;;;14.40;101246.00;;;;10006657;29;20218;-80
2023/09/15 07:05:17;;;;;;;18.67;14.90;;;;;14.50;101243.00;;;;10009893;29;20627;-79
2023/09/15 07:10:18;;;;;;;15.40;13.82;;;;;14.70;101249.00;;;;9994424;29;20243;-77
2023/09/15 07:15:20;;;;;;;16.27;12.38;;;;;14.90;101252.00;;;;10013340;29;20267;-77
2023/09/15 07:20:21;;;;;;;19.92;13.13;;;;;15.10;101249.00;;;;9986970;29;20248;-78
2023/09/15 07:25:24;;;;;;;16.08;10.98;;;;;15.40;101252.00;;;;9992046;29;20218;-77
2023/09/15 07:30:25;;;;;;;16.45;11.07;;;;;15.60;101249.00;;;;9993753;29;20229;-78
2023/09/15 07:35:27;;;;;;;15.05;9.80;;;;;15.90;101255.00;;;;10007665;29;20218;-78
2023/09/15 07:40:28;;;;;;;11.32;10.15;;;;;16.10;101250.00;;;;10000984;29;20209;-78
2023/09/15 07:45:30;;;;;;;13.48;10.05;;;;;16.30;101243.00;;;;10010016;29;20274;-77
2023/09/15 07:50:33;;;;;;;12.15;9.25;;;;;16.60;101231.00;;;;9993417;29;20236;-79
2023/09/15 07:55:34;;;;;;;9.07;8.18;;;;;16.90;101235.00;;;;10003616;29;20231;-78
2023/09/15 08:00:36;;;;;;;10.10;8.25;;;;;17.10;101239.00;;;;10023073;29;20479;-78
2023/09/15 08:05:37;;;;;;;11.43;7.82;;;;;17.40;101235.00;;;;10012621;29;20374;-78
2023/09/15 08:10:39;;;;;;;9.75;7.72;;;;;17.80;101237.00;;;;9998304;29;20221;-78
2023/09/15 08:15:40;;;;;;;11.65;7.28;;;;;18.10;101228.00;;;;10016151;29;20225;-77
2023/09/15 08:20:41;;;;;;;9.65;7.70;;;;;18.40;101232.00;;;;10013725;29;20214;-80
2023/09/15 08:25:43;;;;;;;8.85;6.25;;;;;19.00;101229.00;;;;10006575;29;20217;-80
2023/09/15 08:30:46;;;;;;;12.88;6.40;;;;;19.60;101230.00;;;;10020625;29;20581;-80
2023/09/15 08:35:48;;;;;;;7.00;4.93;;;;;20.30;101226.00;;;;10002977;29;20220;-80
2023/09/15 08:40:51;;;;;;;7.32;4.70;;;;;21.00;101237.00;;;;10019213;29;20270;-81
2023/09/15 08:45:53;;;;;;;7.78;4.35;;;;;21.50;101222.00;;;;10001215;29;20218;-80
2023/09/15 08:50:58;;;;;;;7.78;3.95;;;;;21.80;101219.00;;;;10012017;29;20209;-82
2023/09/15 08:56:00;;;;;;;4.38;3.63;;;;;22.20;101214.00;;;;10009047;29;20214;-81
2023/09/15 09:01:07;;;;;;;8.32;3.78;;;;;22.70;101218.00;;;;10007054;29;20804;-79
2023/09/15 09:06:10;;;;;;;6.30;4.05;;;;;23.00;101221.00;;;;10012738;29;20229;-80
2023/09/15 09:11:13;;;;;;;7.70;4.00;;;;;23.40;101216.00;;;;10019393;29;20197;-81
2023/09/15 09:16:15;;;;;;;9.82;3.90;;;;;23.70;101212.00;;;;10008486;29;20685;-80
2023/09/15 09:21:17;;;;;;;5.80;3.67;;;;;24.10;101226.00;;;;10020660;29;20872;-80
2023/09/15 09:26:18;;;;;;;5.05;3.22;;;;;24.40;101218.00;;;;10019087;29;20604;-81
2023/09/15 09:31:21;;;;;;;6.00;3.22;;;;;24.60;101218.00;;;;9980361;29;20224;-79
2023/09/15 09:36:23;;;;;;;6.05;3.40;;;;;25.00;101211.00;;;;10007705;29;20213;-78
2023/09/15 09:41:25;;;;;;;3.30;3.00;;;;;25.30;101203.00;;;;10013210;29;20603;-79
2023/09/15 09:46:30;;;;;;;6.20;2.70;;;;;25.60;101201.00;;;;9999228;29;20237;-80
2023/09/15 09:51:32;;;;;;;3.78;2.42;;;;;26.00;101197.00;;;;10011699;29;20210;-80
2023/09/15 09:56:33;;;;;;;6.00;2.72;;;;;25.60;101194.00;;;;10002415;29;20225;-79
2023/09/15 10:01:36;;;;;;;5.60;3.65;;;;;24.80;101187.00;;;;10001271;29;20605;-79
2023/09/15 10:06:37;;;;;;;6.28;3.65;;;;;24.70;101187.00;;;;10011633;29;20315;-79
2023/09/15 10:11:39;;;;;;;3.50;3.08;;;;;24.30;101188.00;;;;10019204;29;20245;-79
2023/09/15 10:16:40;;;;;;;3.78;3.25;;;;;26.10;101180.00;;;;10016739;29;20968;-81
2023/09/15 10:21:42;;;;;;;5.32;2.60;;;;;27.20;101167.00;;;;9999209;29;20217;-79
2023/09/15 10:26:44;;;;;;;5.50;2.60;;;;;27.80;101164.00;;;;10003428;29;20240;-80
2023/09/15 10:31:46;;;;;;;7.22;2.92;;;;;27.80;101161.00;;;;10018569;29;20236;-81
2023/09/15 10:36:47;;;;;;;4.78;2.83;;;;;27.80;101157.00;;;;10005469;29;20217;-79
2023/09/15 10:41:49;;;;;;;6.45;3.05;;;;;28.00;101159.00;;;;10018839;29;20227;-81
2023/09/15 10:46:50;;;;;;;5.70;3.00;;;;;27.90;101157.00;;;;10023247;29;20259;-81
2023/09/15 10:51:52;;;;;;;7.35;3.65;;;;;27.80;101158.00;;;;9993627;29;20217;-82
2023/09/15 10:56:54;;;;;;;6.05;3.30;;;;;27.80;101156.00;;;;10022424;29;20224;-82
2023/09/15 11:01:55;;;;;;;5.93;3.00;;;;;27.70;101149.00;;;;10016702;29;20578;-82
2023/09/15 11:06:57;;;;;;;4.35;2.60;;;;;27.90;101138.00;;;;9999594;29;20608;-82
2023/09/15 11:12:02;;;;;;;5.00;2.80;;;;;28.20;101127.00;;;;10006650;29;20218;-81
2023/09/15 11:17:03;;;;;;;4.70;3.05;;;;;28.40;101125.00;;;;10023134;29;20236;-82
2023/09/15 11:22:05;;;;;;;6.97;2.55;;;;;28.50;101122.00;;;;10015972;29;20240;-80
2023/09/15 11:27:07;;;;;;;3.22;2.55;;;;;28.60;101113.00;;;;10019848;29;20225;-81
2023/09/15 11:32:08;;;;;;;3.40;2.40;;;;;28.80;101109.00;;;;10008263;29;20243;-82
2023/09/15 11:37:09;;;;;;;6.43;2.55;;;;;28.70;101105.00;;;;10017880;29;20221;-82
2023/09/15 11:42:11;;;;;;;5.55;2.67;;;;;28.70;101103.00;;;;10014804;29;20274;-81
2023/09/15 11:47:12;;;;;;;6.35;2.70;;;;;28.80;101092.00;;;;10004530;29;20744;-79
2023/09/15 11:52:14;;;;;;;2.47;1.90;;;;;28.90;101104.00;;;;10016002;29;20210;-79
2023/09/15 11:57:15;;;;;;;3.38;2.20;;;;;28.90;101092.00;;;;10034878;29;20309;-79
2023/09/15 12:02:20;;;;;;;3.38;2.22;;;;;28.90;101088.00;;;;10029205;29;20618;-79
2023/09/15 12:07:23;;;;;;;2.67;2.47;;;;;29.10;101085.00;;;;10008103;29;20208;-79
2023/09/15 12:12:24;;;;;;;4.38;2.17;;;;;29.20;101074.00;;;;9992981;29;20225;-79
2023/09/15 12:17:29;;;;;;;2.75;2.47;;;;;29.10;101069.00;;;;10009338;29;20252;-80
2023/09/15 12:22:37;;;;;;;2.70;2.00;;;;;28.00;101065.00;;;;10001798;29;20270;-80
2023/09/15 12:27:40;;;;;;;3.42;2.35;;;;;28.80;101048.00;;;;10002983;29;20981;-80
2023/09/15 12:32:44;;;;;;;3.13;2.00;;;;;28.80;101047.00;;;;10000060;29;20308;-78
2023/09/15 12:37:46;;;;;;;3.15;2.03;;;;;27.80;101045.00;;;;10010193;29;20384;-79
2023/09/15 12:42:47;;;;;;;4.80;2.10;;;;;28.10;101036.00;;;;10022374;29;20279;-79
2023/09/15 12:47:49;;;;;;;6.72;2.35;;;;;28.30;101029.00;;;;10012827;29;20316;-78
2023/09/15 12:52:50;;;;;;;3.17;2.05;;;;;28.30;101029.00;;;;10009184;29;20249;-78
2023/09/15 12:57:51;;;;;;;2.63;2.10;;;;;28.10;101033.00;;;;10021497;29;20241;-78
2023/09/15 13:02:52;;;;;;;4.15;2.08;;;;;28.20;101026.00;;;;10005475;29;20217;-77
2023/09/15 13:07:54;;;;;;;4.95;2.10;;;;;27.90;101027.00;;;;10019979;29;20296;-79
2023/09/15 13:12:55;;;;;;;4.68;2.20;;;;;27.40;101018.00;;;;10006255;29;20220;-80
2023/09/15 13:17:58;;;;;;;2.97;2.05;;;;;27.70;101018.00;;;;9998282;29;20229;-79
2023/09/15 13:23:00;;;;;;;3.63;1.95;;;;;27.60;101006.00;;;;9994256;29;20214;-79
2023/09/15 13:28:01;;;;;;;3.58;2.10;;;;;27.70;101004.00;;;;10007429;29;20688;-78
2023/09/15 13:33:03;;;;;;;5.18;2.05;;;;;27.80;101004.00;;;;10018024;29;20265;-79
2023/09/15 13:38:04;;;;;;;4.80;2.20;;;;;27.30;101015.00;;;;10003269;29;20308;-79
2023/09/15 13:43:06;;;;;;;3.50;1.90;;;;;26.70;100997.00;;;;9995413;29;20213;-80
2023/09/15 13:48:07;;;;;;;7.40;2.38;;;;;27.20;100989.00;;;;10011303;29;20214;-79
2023/09/15 13:53:09;;;;;;;4.53;2.05;;;;;27.00;100992.00;;;;10000040;29;20221;-79
2023/09/15 13:58:16;;;;;;;3.95;2.15;;;;;27.60;100986.00;;;;10008660;29;20241;-79
2023/09/15 14:03:18;;;;;;;3.70;2.08;;;;;28.60;100983.00;;;;9996957;29;20245;-80
2023/09/15 14:08:20;;;;;;;4.80;2.30;;;;;28.10;100974.00;;;;10001589;29;20220;-80
2023/09/15 14:13:21;;;;;;;3.08;2.22;;;;;28.20;100958.00;;;;10022725;29;20224;-81
2023/09/15 14:18:23;;;;;;;4.35;2.33;;;;;27.90;100962.00;;;;9997270;29;20236;-79
2023/09/15 14:23:26;;;;;;;4.70;2.17;;;;;26.80;100958.00;;;;9996917;29;20217;-80
2023/09/15 14:28:27;;;;;;;4.60;2.30;;;;;26.60;100940.00;;;;10013428;29;20213;-80
2023/09/15 14:33:28;;;;;;;3.83;2.38;;;;;26.30;100948.00;;;;10007378;29;20222;-81
2023/09/15 14:38:30;;;;;;;2.92;1.88;;;;;26.10;100946.00;;;;10008563;29;20245;-81
2023/09/15 14:43:32;;;;;;;3.72;2.30;;;;;26.30;100937.00;;;;9995112;29;20703;-81
2023/09/15 14:48:34;;;;;;;3.08;2.20;;;;;26.70;100923.00;;;;10025816;29;20232;-81
2023/09/15 14:53:36;;;;;;;5.00;2.10;;;;;27.10;100911.00;;;;10011400;29;20213;-80
2023/09/15 14:58:38;;;;;;;2.65;2.20;;;;;27.10;100917.00;;;;9994077;29;20249;-82
2023/09/15 15:03:39;;;;;;;3.20;2.35;;;;;27.00;100909.00;;;;10005465;29;20213;-82
2023/09/15 15:08:41;;;;;;;3.33;2.00;;;;;26.80;100902.00;;;;10005935;29;20214;-82
2023/09/15 15:13:42;;;;;;;2.67;2.08;;;;;26.40;100900.00;;;;10008773;29;20628;-82
2023/09/15 15:18:44;;;;;;;5.45;2.10;;;;;26.10;100896.00;;;;9997952;29;20225;-78
2023/09/15 15:23:46;;;;;;;2.75;2.22;;;;;25.90;100893.00;;;;9994997;29;20232;-79
2023/09/15 15:28:49;;;;;;;4.30;2.17;;;;;25.90;100892.00;;;;10020239;29;20252;-79
2023/09/15 15:33:54;;;;;;;3.60;1.90;;;;;25.70;100884.00;;;;9998575;29;20214;-79
2023/09/15 15:38:57;;;;;;;2.88;1.95;;;;;25.40;100879.00;;;;10026117;29;20255;-79
2023/09/15 15:43:59;;;;;;;4.20;1.83;;;;;25.00;100882.00;;;;10016998;29;20224;-79
2023/09/15 15:49:00;;;;;;;6.50;2.70;;;;;24.70;100876.00;;;;10001369;29;20278;-79
2023/09/15 15:54:02;;;;;;;4.45;2.03;;;;;24.60;100879.00;;;;10002969;29;20209;-79
2023/09/15 15:59:06;;;;;;;3.72;2.33;;;;;24.50;100881.00;;;;9993311;29;20276;-78
2023/09/15 16:04:07;;;;;;;3.60;2.33;;;;;24.60;100880.00;;;;9970884;29;20225;-79
2023/09/15 16:09:09;;;;;;;1.90;1.75;;;;;24.50;100871.00;;;;9909772;29;20222;-80
2023/09/15 16:14:10;;;;;;;3.85;2.20;;;;;24.20;100886.00;;;;9882805;29;20933;-79
2023/09/15 16:19:12;;;;;;;3.97;1.92;;;;;24.00;100872.00;;;;9901020;29;20341;-79
2023/09/15 16:24:14;;;;;;;4.40;2.00;;;;;23.70;100870.00;;;;9893395;29;20213;-78
2023/09/15 16:29:16;;;;;;;3.30;2.25;;;;;23.50;100868.00;;;;9911536;29;20230;-81
2023/09/15 16:34:17;;;;;;;4.22;2.90;;;;;23.30;100875.00;;;;9920958;29;20692;-82
2023/09/15 16:39:20;;;;;;;4.65;2.13;;;;;23.10;100883.00;;;;9899770;29;21858;-81
2023/09/15 16:44:22;;;;;;;3.30;2.13;;;;;22.90;100879.00;;;;9916107;29;20232;-82
2023/09/15 16:49:23;;;;;;;3.00;2.38;;;;;22.70;100885.00;;;;9898751;29;21796;-81
2023/09/15 16:54:25;;;;;;;3.33;2.22;;;;;22.50;100896.00;;;;9915929;29;20312;-81
2023/09/15 16:59:26;;;;;;;6.05;2.47;;;;;22.30;100892.00;;;;9913728;29;20359;-81
2023/09/15 17:04:28;;;;;;;4.20;2.10;;;;;22.20;100894.00;;;;9896799;29;20227;-81
2023/09/15 17:09:29;;;;;;;2.83;2.53;;;;;22.20;100896.00;;;;9909404;29;20360;-81
2023/09/15 17:14:30;;;;;;;7.28;2.03;;;;;22.10;100894.00;;;;9900128;29;20298;-82
2023/09/15 17:19:31;;;;;;;5.47;2.35;;;;;22.00;100893.00;;;;9900160;29;20242;-81
2023/09/15 17:24:33;;;;;;;4.10;2.38;;;;;21.80;100887.00;;;;9903374;29;20602;-81
2023/09/15 17:29:35;;;;;;;3.70;2.22;;;;;21.60;100888.00;;;;9900810;29;20335;-80
2023/09/15 17:34:36;;;;;;;4.43;2.25;;;;;21.40;100898.00;;;;9899845;29;20376;-82
2023/09/15 17:39:38;;;;;;;4.25;1.90;;;;;21.10;100895.00;;;;9938734;29;20239;-82
2023/09/15 17:44:41;;;;;;;3.38;2.22;;;;;21.00;100897.00;;;;10135985;23;20300;-89
2023/09/15 17:50:08;;;;;;;2.88;1.80;;;;;20.70;100902.00;;;;3046299;24;20362;-79
2023/09/15 17:55:11;;;;;;;7.20;2.40;;;;;20.60;100898.00;;;;9989239;29;20914;-78
2023/09/15 18:00:17;;;;;;;4.10;2.70;;;;;20.40;100902.00;;;;10548845;23;21149;-78
2023/09/15 18:05:20;;;;;;;4.30;2.30;;;;;20.30;100901.00;;;;10693053;23;20507;-78
2023/09/15 18:33:36;;;;;;;7.03;2.55;;;;;19.30;100907.00;;;;11644224;23;20255;-91
2023/09/15 18:38:45;;;;;;;6.25;2.80;;;;;19.20;100913.00;;;;9962679;29;20419;-90
2023/09/15 18:43:47;;;;;;;3.22;2.47;;;;;19.10;100906.00;;;;9971340;29;20280;-91
2023/09/15 18:48:51;;;;;;;4.03;2.40;;;;;19.00;100908.00;;;;9963127;29;20213;-90
2023/09/15 18:53:53;;;;;;;3.38;2.55;;;;;18.90;100912.00;;;;9967289;29;20244;-92
2023/09/15 18:58:55;;;;;;;3.33;2.47;;;;;18.80;100921.00;;;;9967891;29;21300;-91
2023/09/15 19:03:56;;;;;;;3.60;2.72;;;;;18.70;100922.00;;;;9950465;29;20336;-90
2023/09/15 19:08:58;;;;;;;2.60;2.40;;;;;18.60;100927.00;;;;9962185;29;20212;-91
2023/09/15 19:13:59;;;;;;;8.38;3.00;;;;;18.50;100930.00;;;;9973128;29;20217;-91
2023/09/15 19:19:01;;;;;;;4.43;2.35;;;;;18.40;100926.00;;;;9954177;29;20597;-91
2023/09/15 19:24:04;;;;;;;6.32;3.00;;;;;18.30;100938.00;;;;9954578;29;20212;-91
2023/09/15 19:29:06;;;;;;;6.80;2.90;;;;;18.20;100932.00;;;;9959461;29;20302;-91
2023/09/15 19:34:08;;;;;;;6.15;3.45;;;;;18.10;100934.00;;;;9975194;29;20217;-91
2023/09/15 19:39:10;;;;;;;3.72;2.97;;;;;18.00;100932.00;;;;9956342;29;20265;-91
2023/09/15 19:44:14;;;;;;;5.60;2.85;;;;;18.00;100937.00;;;;9952189;23;20970;-78
2023/09/15 19:49:15;;;;;;;6.18;3.30;;;;;17.90;100936.00;;;;10001671;29;20232;-78
2023/09/15 19:54:16;;;;;;;5.60;3.75;;;;;17.80;100941.00;;;;9984385;29;20350;-79
2023/09/15 19:59:18;;;;;;;6.35;3.50;;;;;17.80;100944.00;;;;10001520;29;20243;-79
2023/09/15 20:04:19;;;;;;;5.18;3.53;;;;;17.70;100940.00;;;;9990609;29;20223;-81
2023/09/15 20:09:21;;;;;;;4.95;3.63;;;;;17.70;100942.00;;;;9992839;29;20228;-80
2023/09/15 20:14:22;;;;;;;5.07;3.38;;;;;17.70;100936.00;;;;10007969;29;20815;-79
2023/09/15 20:19:25;;;;;;;4.60;3.30;;;;;17.80;100942.00;;;;9991920;29;20868;-80
2023/09/15 20:24:26;;;;;;;4.80;3.40;;;;;17.80;100944.00;;;;10001350;29;21191;-79
2023/09/15 20:29:28;;;;;;;3.63;3.10;;;;;17.90;100935.00;;;;10009742;29;20216;-80
2023/09/15 20:34:29;;;;;;;5.95;4.22;;;;;17.90;100946.00;;;;9973864;29;20600;-78
2023/09/15 20:39:31;;;;;;;6.00;3.70;;;;;17.90;100937.00;;;;10006639;29;20296;-80
2023/09/15 20:44:33;;;;;;;5.28;3.42;;;;;17.80;100943.00;;;;10008515;29;21689;-79
2023/09/15 20:49:35;;;;;;;6.35;3.08;;;;;17.70;100936.00;;;;9974383;29;20255;-80
2023/09/15 20:54:36;;;;;;;5.82;3.58;;;;;17.70;100939.00;;;;10009927;29;20762;-80
2023/09/15 20:59:38;;;;;;;4.82;4.05;;;;;17.60;100940.00;;;;9963176;29;20224;-80
2023/09/15 21:04:39;;;;;;;6.10;3.90;;;;;17.50;100941.00;;;;9959500;29;21625;-80
2023/09/15 21:09:41;;;;;;;8.43;3.97;;;;;17.50;100938.00;;;;10008632;29;20216;-79
2023/09/15 21:14:42;;;;;;;7.05;4.43;;;;;17.50;100929.00;;;;9991573;29;20463;-82
2023/09/15 21:19:44;;;;;;;5.30;3.83;;;;;17.40;100921.00;;;;9992908;29;20804;-79
2023/09/15 21:24:45;;;;;;;5.40;3.92;;;;;17.30;100915.00;;;;9992102;29;20648;-82
2023/09/15 21:29:47;;;;;;;6.03;4.10;;;;;17.20;100915.00;;;;10011407;29;21321;-80
2023/09/15 21:34:48;;;;;;;7.68;4.38;;;;;17.10;100909.00;;;;9976075;29;20950;-80
2023/09/15 21:39:50;;;;;;;5.82;3.97;;;;;17.00;100904.00;;;;9970958;29;20707;-79
2023/09/15 21:44:51;;;;;;;5.30;4.30;;;;;16.80;100906.00;;;;9996239;29;20228;-79
2023/09/15 21:49:54;;;;;;;7.82;3.92;;;;;16.60;100893.00;;;;10012849;29;20230;-79
2023/09/15 21:54:56;;;;;;;6.05;4.25;;;;;16.50;100882.00;;;;10007480;29;20223;-78
2023/09/15 21:59:57;;;;;;;7.30;4.32;;;;;16.40;100888.00;;;;9998564;29;20244;-78
2023/09/15 22:05:06;;;;;;;5.28;4.78;;;;;16.30;100886.00;;;;9991346;29;20216;-80
2023/09/15 22:10:09;;;;;;;6.85;4.65;;;;;16.10;100888.00;;;;9995103;29;20283;-78
2023/09/15 22:15:12;;;;;;;6.95;5.05;;;;;16.00;100887.00;;;;9979275;29;20224;-78
2023/09/15 22:20:20;;;;;;;5.18;4.60;;;;;15.90;100882.00;;;;9975971;29;20234;-81
2023/09/15 22:25:24;;;;;;;7.72;4.70;;;;;15.90;100878.00;;;;10008392;29;20263;-80
2023/09/15 22:30:25;;;;;;;5.10;4.65;;;;;15.80;100870.00;;;;9992065;29;20317;-79
2023/09/15 22:35:27;;;;;;;9.27;4.85;;;;;15.60;100875.00;;;;10008446;29;20216;-81
2023/09/15 22:40:28;;;;;;;9.23;5.50;;;;;15.50;100861.00;;;;10007629;29;20222;-81
2023/09/15 22:45:32;;;;;;;5.47;4.95;;;;;15.50;100867.00;;;;9992725;29;20220;-81
2023/09/15 22:50:35;;;;;;;7.35;6.03;;;;;15.40;100852.00;;;;9990108;29;20823;-80
2023/09/15 22:55:38;;;;;;;7.15;5.45;;;;;15.30;100858.00;;;;9992467;29;20251;-80
2023/09/15 23:00:39;;;;;;;7.10;5.43;;;;;15.30;100859.00;;;;9977403;29;21964;-80
2023/09/15 23:05:40;;;;;;;10.23;5.60;;;;;15.20;100854.00;;;;9991302;29;20266;-80
2023/09/15 23:10:42;;;;;;;7.38;5.28;;;;;15.20;100844.00;;;;10006642;29;21903;-80
2023/09/15 23:15:43;;;;;;;7.70;6.13;;;;;15.10;100861.00;;;;9974530;29;21921;-80
2023/09/15 23:20:48;;;;;;;8.93;6.20;;;;;15.10;100849.00;;;;9991132;29;20216;-80
2023/09/15 23:25:49;;;;;;;8.48;6.00;;;;;15.00;100852.00;;;;9991888;29;21796;-80
2023/09/15 23:30:51;;;;;;;7.53;6.63;;;;;14.90;100861.00;;;;9976067;29;20243;-81
2023/09/15 23:35:52;;;;;;;8.00;6.25;;;;;14.90;100868.00;;;;10012614;29;20405;-80
2023/09/15 23:40:53;;;;;;;7.85;6.88;;;;;14.80;100865.00;;;;9993637;29;20242;-80
2023/09/15 23:45:55;;;;;;;8.65;6.72;;;;;14.70;100867.00;;;;9976196;29;20662;-80
2023/09/15 23:50:56;;;;;;;8.27;6.97;;;;;14.70;100856.00;;;;9991607;29;20227;-80
2023/09/15 23:55:57;;;;;;;6.63;5.57;;;;;14.60;100857.00;;;;9994874;29;20932;-81
